Hampton, NH

4:52 PM EDT on August 25, 2016 (GMT -0400)
Between beach and center of town | | Change Station

Elev 69 ft 42.94 °N, 70.83 °W | Updated 1 minute ago

Mostly Cloudy
Mostly Cloudy
83.5 °F
Feels Like 86 °F
N
0.0
Wind Variable Wind from North

Today
High -- | Low -- °F
--% Chance of Precip.
Yesterday
High -- | Low -- °F
Precip. -- in
Pressure 29.95 in
Visibility 10.0 miles
Clouds Few 4500 ft
Mostly Cloudy 20000 ft
Heat Index 86 °F
Dew Point 68 °F
Humidity 59%
Rainfall Not available.
Snow Depth Not available.
6:00 AM 7:28 PM
Last Quarter, 42% visible
METAR KPSM 251958Z 20009KT 10SM FEW045 BKN200 29/18 A2994 RMK AO2A SLP141 T02870184
Pressure 29.95 in
Visibility 10.0 miles
Clouds Few 4500 ft
Mostly Cloudy 20000 ft
Heat Index 86 °F
Dew Point 68 °F
Humidity 59%
Rainfall Not available.
Snow Depth Not available.
6:00 AM 7:28 PM
Last Quarter, 42% visible
METAR KPSM 251958Z 20009KT 10SM FEW045 BKN200 29/18 A2994 RMK AO2A SLP141 T02870184
A tropical disturbance pushing toward the Bahamas, is expected to develop into a tropical depression or storm, and will likely target Florida and the Gulf Coast this weekend into next week.

Right now, the disturbance remains a broad area of low pressure pushing through the Dominican Republic and Haiti, headed toward the southeast Bahamas. Rainfall totals over 3 inches (with locally higher amounts) are expected in HispaƱiola, particularly over elevated terrain.

10-Day Weather Forecast

Almanac

Astronomy

Aug. 25, 2016 Rise Set
Actual Time
Civil Twilight
Nautical Twilight
Astronomical Twilight
Moon
Length of Visible Light
Length of Day
Tomorrow will be .
, % of the Moon is Illuminated

Today's Extremes

State Highs State Lows

Community

WunderPhotos

Upload Photos

1,934,931 photos uploaded!

WunderBlog® & News

Nearby

Air Quality

  Air Quality AQ Index Pollutant
Not available.

Snow Depth

Station Depth Elevation

Earthquake Activity

City Distance Mag. Time & Date
Minimum magnitude displayed is 2.5.

Coastal Water Temperatures

Place Temperature

Stations

Nearby Weather Stations

Station Location Temp. Windchill Dew Point Humidity Wind Precip. Elev Updated Type
                   

Watches & Warnings

There are currently no watches in effect.